sensor_id;sensor_type;location;lat;lon;timestamp;P1;durP1;ratioP1;P2;durP2;ratioP2
34725;SDS011;20951;50.818;4.344;2024-01-30T00:02:10;9.38;;;5.30;;
34725;SDS011;20951;50.818;4.344;2024-01-30T00:04:36;9.45;;;5.75;;
34725;SDS011;20951;50.818;4.344;2024-01-30T00:07:02;11.25;;;6.07;;
34725;SDS011;20951;50.818;4.344;2024-01-30T00:09:28;8.60;;;5.20;;
34725;SDS011;20951;50.818;4.344;2024-01-30T00:11:54;8.75;;;5.57;;
34725;SDS011;20951;50.818;4.344;2024-01-30T00:14:19;9.80;;;5.07;;
34725;SDS011;20951;50.818;4.344;2024-01-30T00:16:45;8.98;;;5.20;;
34725;SDS011;20951;50.818;4.344;2024-01-30T00:19:11;8.48;;;5.68;;
34725;SDS011;20951;50.818;4.344;2024-01-30T00:21:37;10.98;;;5.50;;
34725;SDS011;20951;50.818;4.344;2024-01-30T00:24:03;9.25;;;5.43;;
34725;SDS011;20951;50.818;4.344;2024-01-30T00:26:29;9.40;;;5.53;;
34725;SDS011;20951;50.818;4.344;2024-01-30T00:28:55;8.27;;;5.00;;
34725;SDS011;20951;50.818;4.344;2024-01-30T00:31:21;8.68;;;5.53;;
34725;SDS011;20951;50.818;4.344;2024-01-30T00:33:46;7.40;;;5.00;;
34725;SDS011;20951;50.818;4.344;2024-01-30T00:36:12;8.32;;;5.00;;
34725;SDS011;20951;50.818;4.344;2024-01-30T00:38:38;8.40;;;5.20;;
34725;SDS011;20951;50.818;4.344;2024-01-30T00:41:06;9.60;;;5.15;;
34725;SDS011;20951;50.818;4.344;2024-01-30T00:43:33;8.18;;;5.60;;
34725;SDS011;20951;50.818;4.344;2024-01-30T00:45:59;9.38;;;5.40;;
34725;SDS011;20951;50.818;4.344;2024-01-30T00:48:25;9.13;;;5.78;;
34725;SDS011;20951;50.818;4.344;2024-01-30T00:50:51;7.07;;;5.18;;
34725;SDS011;20951;50.818;4.344;2024-01-30T00:53:16;8.27;;;5.43;;
34725;SDS011;20951;50.818;4.344;2024-01-30T00:55:43;9.65;;;5.40;;
34725;SDS011;20951;50.818;4.344;2024-01-30T00:58:08;9.25;;;5.80;;
34725;SDS011;20951;50.818;4.344;2024-01-30T01:00:34;8.48;;;5.40;;
34725;SDS011;20951;50.818;4.344;2024-01-30T01:03:00;9.30;;;5.05;;
34725;SDS011;20951;50.818;4.344;2024-01-30T01:05:26;8.25;;;4.72;;
34725;SDS011;20951;50.818;4.344;2024-01-30T01:07:52;8.38;;;5.13;;
34725;SDS011;20951;50.818;4.344;2024-01-30T01:10:18;9.82;;;5.43;;
34725;SDS011;20951;50.818;4.344;2024-01-30T01:12:44;8.05;;;5.13;;
34725;SDS011;20951;50.818;4.344;2024-01-30T01:15:10;9.13;;;5.22;;
34725;SDS011;20951;50.818;4.344;2024-01-30T01:17:37;9.82;;;5.07;;
34725;SDS011;20951;50.818;4.344;2024-01-30T01:20:05;9.52;;;5.20;;
34725;SDS011;20951;50.818;4.344;2024-01-30T01:22:31;9.13;;;5.40;;
34725;SDS011;20951;50.818;4.344;2024-01-30T01:24:59;8.15;;;5.68;;
34725;SDS011;20951;50.818;4.344;2024-01-30T01:27:25;7.90;;;4.93;;
34725;SDS011;20951;50.818;4.344;2024-01-30T01:29:51;8.15;;;5.15;;
34725;SDS011;20951;50.818;4.344;2024-01-30T01:32:18;9.45;;;5.25;;
34725;SDS011;20951;50.818;4.344;2024-01-30T01:34:44;9.13;;;5.15;;
34725;SDS011;20951;50.818;4.344;2024-01-30T01:37:10;8.45;;;5.18;;
34725;SDS011;20951;50.818;4.344;2024-01-30T01:39:36;8.57;;;5.40;;
34725;SDS011;20951;50.818;4.344;2024-01-30T01:42:02;8.52;;;5.05;;
34725;SDS011;20951;50.818;4.344;2024-01-30T01:44:28;7.85;;;4.75;;
34725;SDS011;20951;50.818;4.344;2024-01-30T01:46:54;8.43;;;4.95;;
34725;SDS011;20951;50.818;4.344;2024-01-30T01:49:22;9.73;;;5.10;;
34725;SDS011;20951;50.818;4.344;2024-01-30T01:51:50;9.80;;;5.15;;
34725;SDS011;20951;50.818;4.344;2024-01-30T01:54:21;8.48;;;4.93;;
34725;SDS011;20951;50.818;4.344;2024-01-30T01:56:49;8.60;;;5.07;;
34725;SDS011;20951;50.818;4.344;2024-01-30T01:59:16;9.20;;;5.35;;
34725;SDS011;20951;50.818;4.344;2024-01-30T02:01:43;8.48;;;4.78;;
34725;SDS011;20951;50.818;4.344;2024-01-30T02:04:10;11.10;;;5.30;;
34725;SDS011;20951;50.818;4.344;2024-01-30T02:06:36;9.48;;;5.10;;
34725;SDS011;20951;50.818;4.344;2024-01-30T02:09:03;7.43;;;4.63;;
34725;SDS011;20951;50.818;4.344;2024-01-30T02:11:29;8.07;;;5.20;;
34725;SDS011;20951;50.818;4.344;2024-01-30T02:13:56;8.80;;;4.80;;
34725;SDS011;20951;50.818;4.344;2024-01-30T02:16:22;8.13;;;4.80;;
34725;SDS011;20951;50.818;4.344;2024-01-30T02:18:48;8.73;;;4.90;;
34725;SDS011;20951;50.818;4.344;2024-01-30T02:21:15;8.35;;;5.20;;
34725;SDS011;20951;50.818;4.344;2024-01-30T02:23:42;7.85;;;4.85;;
34725;SDS011;20951;50.818;4.344;2024-01-30T02:26:09;7.88;;;4.97;;
34725;SDS011;20951;50.818;4.344;2024-01-30T02:28:37;8.18;;;4.82;;
34725;SDS011;20951;50.818;4.344;2024-01-30T02:31:03;10.18;;;4.90;;
34725;SDS011;20951;50.818;4.344;2024-01-30T02:33:29;9.10;;;5.22;;
34725;SDS011;20951;50.818;4.344;2024-01-30T02:35:55;8.57;;;4.90;;
34725;SDS011;20951;50.818;4.344;2024-01-30T02:38:21;7.72;;;4.70;;
34725;SDS011;20951;50.818;4.344;2024-01-30T02:40:48;9.35;;;5.13;;
34725;SDS011;20951;50.818;4.344;2024-01-30T02:43:14;8.00;;;4.90;;
34725;SDS011;20951;50.818;4.344;2024-01-30T02:45:40;9.98;;;4.78;;
34725;SDS011;20951;50.818;4.344;2024-01-30T02:48:06;8.07;;;5.32;;
34725;SDS011;20951;50.818;4.344;2024-01-30T02:50:32;8.45;;;4.85;;
34725;SDS011;20951;50.818;4.344;2024-01-30T02:52:58;9.43;;;5.35;;
34725;SDS011;20951;50.818;4.344;2024-01-30T02:55:24;8.60;;;4.85;;
34725;SDS011;20951;50.818;4.344;2024-01-30T02:57:49;9.98;;;5.03;;
34725;SDS011;20951;50.818;4.344;2024-01-30T03:00:15;9.43;;;4.88;;
34725;SDS011;20951;50.818;4.344;2024-01-30T03:02:41;8.52;;;4.70;;
34725;SDS011;20951;50.818;4.344;2024-01-30T03:05:07;10.57;;;5.28;;
34725;SDS011;20951;50.818;4.344;2024-01-30T03:07:33;8.98;;;5.05;;
34725;SDS011;20951;50.818;4.344;2024-01-30T03:09:59;10.57;;;5.30;;
34725;SDS011;20951;50.818;4.344;2024-01-30T03:12:25;10.05;;;5.40;;
34725;SDS011;20951;50.818;4.344;2024-01-30T03:14:51;10.13;;;5.60;;
34725;SDS011;20951;50.818;4.344;2024-01-30T03:17:17;10.93;;;5.65;;
34725;SDS011;20951;50.818;4.344;2024-01-30T03:19:43;8.45;;;5.05;;
34725;SDS011;20951;50.818;4.344;2024-01-30T03:22:09;9.85;;;5.20;;
34725;SDS011;20951;50.818;4.344;2024-01-30T03:24:35;8.05;;;5.30;;
34725;SDS011;20951;50.818;4.344;2024-01-30T03:27:00;9.25;;;4.90;;
34725;SDS011;20951;50.818;4.344;2024-01-30T03:29:26;10.90;;;5.38;;
34725;SDS011;20951;50.818;4.344;2024-01-30T03:31:52;8.57;;;5.35;;
34725;SDS011;20951;50.818;4.344;2024-01-30T03:34:18;7.57;;;5.07;;
34725;SDS011;20951;50.818;4.344;2024-01-30T03:36:43;8.75;;;5.28;;
34725;SDS011;20951;50.818;4.344;2024-01-30T03:39:09;10.32;;;5.13;;
34725;SDS011;20951;50.818;4.344;2024-01-30T03:41:35;8.02;;;5.50;;
34725;SDS011;20951;50.818;4.344;2024-01-30T03:44:01;7.50;;;4.97;;
34725;SDS011;20951;50.818;4.344;2024-01-30T03:46:27;9.90;;;5.20;;
34725;SDS011;20951;50.818;4.344;2024-01-30T03:48:53;8.52;;;5.00;;
34725;SDS011;20951;50.818;4.344;2024-01-30T03:51:19;9.40;;;4.88;;
34725;SDS011;20951;50.818;4.344;2024-01-30T03:53:45;12.10;;;5.63;;
34725;SDS011;20951;50.818;4.344;2024-01-30T03:56:13;8.55;;;5.55;;
34725;SDS011;20951;50.818;4.344;2024-01-30T03:58:39;9.73;;;5.40;;
34725;SDS011;20951;50.818;4.344;2024-01-30T04:01:05;11.07;;;5.35;;
34725;SDS011;20951;50.818;4.344;2024-01-30T04:03:31;9.18;;;5.65;;
34725;SDS011;20951;50.818;4.344;2024-01-30T04:05:57;11.15;;;6.22;;
34725;SDS011;20951;50.818;4.344;2024-01-30T04:08:22;11.30;;;5.53;;
34725;SDS011;20951;50.818;4.344;2024-01-30T04:10:48;9.77;;;5.85;;
34725;SDS011;20951;50.818;4.344;2024-01-30T04:13:14;9.48;;;5.53;;
34725;SDS011;20951;50.818;4.344;2024-01-30T04:15:40;9.68;;;5.80;;
34725;SDS011;20951;50.818;4.344;2024-01-30T04:18:06;11.60;;;5.90;;
34725;SDS011;20951;50.818;4.344;2024-01-30T04:20:31;11.27;;;5.72;;
34725;SDS011;20951;50.818;4.344;2024-01-30T04:22:57;9.45;;;5.45;;
34725;SDS011;20951;50.818;4.344;2024-01-30T04:25:23;8.85;;;5.38;;
34725;SDS011;20951;50.818;4.344;2024-01-30T04:27:49;8.93;;;5.93;;
34725;SDS011;20951;50.818;4.344;2024-01-30T04:30:15;8.93;;;5.40;;
34725;SDS011;20951;50.818;4.344;2024-01-30T04:32:40;10.38;;;5.88;;
34725;SDS011;20951;50.818;4.344;2024-01-30T04:35:06;8.77;;;5.45;;
34725;SDS011;20951;50.818;4.344;2024-01-30T04:37:32;8.70;;;5.78;;
34725;SDS011;20951;50.818;4.344;2024-01-30T04:39:58;10.55;;;5.88;;
34725;SDS011;20951;50.818;4.344;2024-01-30T04:42:24;8.95;;;5.40;;
34725;SDS011;20951;50.818;4.344;2024-01-30T04:44:50;10.60;;;5.70;;
34725;SDS011;20951;50.818;4.344;2024-01-30T04:47:16;10.38;;;6.18;;
34725;SDS011;20951;50.818;4.344;2024-01-30T04:49:42;7.63;;;5.40;;
34725;SDS011;20951;50.818;4.344;2024-01-30T04:52:08;11.90;;;6.38;;
34725;SDS011;20951;50.818;4.344;2024-01-30T04:54:34;9.80;;;5.85;;
34725;SDS011;20951;50.818;4.344;2024-01-30T04:57:00;11.52;;;5.97;;
34725;SDS011;20951;50.818;4.344;2024-01-30T04:59:27;9.35;;;6.28;;
34725;SDS011;20951;50.818;4.344;2024-01-30T05:01:52;7.55;;;5.55;;
34725;SDS011;20951;50.818;4.344;2024-01-30T05:04:18;10.57;;;6.00;;
34725;SDS011;20951;50.818;4.344;2024-01-30T05:06:44;9.73;;;6.03;;
34725;SDS011;20951;50.818;4.344;2024-01-30T05:09:10;8.88;;;5.93;;
34725;SDS011;20951;50.818;4.344;2024-01-30T05:11:37;10.52;;;5.72;;
34725;SDS011;20951;50.818;4.344;2024-01-30T05:14:03;8.65;;;6.13;;
34725;SDS011;20951;50.818;4.344;2024-01-30T05:16:29;9.52;;;5.82;;
34725;SDS011;20951;50.818;4.344;2024-01-30T05:18:56;11.43;;;6.10;;
34725;SDS011;20951;50.818;4.344;2024-01-30T05:21:21;9.70;;;6.05;;
34725;SDS011;20951;50.818;4.344;2024-01-30T05:23:47;11.35;;;6.40;;
34725;SDS011;20951;50.818;4.344;2024-01-30T05:26:13;10.65;;;5.95;;
34725;SDS011;20951;50.818;4.344;2024-01-30T05:28:38;9.57;;;5.93;;
34725;SDS011;20951;50.818;4.344;2024-01-30T05:31:04;11.07;;;5.82;;
34725;SDS011;20951;50.818;4.344;2024-01-30T05:33:30;8.95;;;5.60;;
34725;SDS011;20951;50.818;4.344;2024-01-30T05:35:56;12.32;;;5.55;;
34725;SDS011;20951;50.818;4.344;2024-01-30T05:38:22;9.95;;;5.60;;
34725;SDS011;20951;50.818;4.344;2024-01-30T05:40:47;10.70;;;6.20;;
34725;SDS011;20951;50.818;4.344;2024-01-30T05:43:13;9.13;;;5.78;;
34725;SDS011;20951;50.818;4.344;2024-01-30T05:45:39;9.80;;;6.10;;
34725;SDS011;20951;50.818;4.344;2024-01-30T05:48:05;10.70;;;5.80;;
34725;SDS011;20951;50.818;4.344;2024-01-30T05:50:31;8.75;;;5.95;;
34725;SDS011;20951;50.818;4.344;2024-01-30T05:52:56;12.27;;;6.07;;
34725;SDS011;20951;50.818;4.344;2024-01-30T05:55:22;10.77;;;6.10;;
34725;SDS011;20951;50.818;4.344;2024-01-30T05:57:48;9.20;;;6.18;;
34725;SDS011;20951;50.818;4.344;2024-01-30T06:00:14;12.15;;;6.22;;
34725;SDS011;20951;50.818;4.344;2024-01-30T06:02:40;11.50;;;6.40;;
34725;SDS011;20951;50.818;4.344;2024-01-30T06:05:06;10.73;;;6.15;;
34725;SDS011;20951;50.818;4.344;2024-01-30T06:07:32;11.07;;;6.45;;
34725;SDS011;20951;50.818;4.344;2024-01-30T06:09:58;10.65;;;5.85;;
34725;SDS011;20951;50.818;4.344;2024-01-30T06:12:27;10.13;;;6.20;;
34725;SDS011;20951;50.818;4.344;2024-01-30T06:14:53;13.45;;;7.00;;
34725;SDS011;20951;50.818;4.344;2024-01-30T06:17:21;12.02;;;6.70;;
34725;SDS011;20951;50.818;4.344;2024-01-30T06:19:47;12.50;;;6.30;;
34725;SDS011;20951;50.818;4.344;2024-01-30T06:22:13;11.77;;;6.70;;
34725;SDS011;20951;50.818;4.344;2024-01-30T06:24:39;10.18;;;7.00;;
34725;SDS011;20951;50.818;4.344;2024-01-30T06:27:05;12.57;;;6.97;;
34725;SDS011;20951;50.818;4.344;2024-01-30T06:29:31;11.82;;;7.10;;
34725;SDS011;20951;50.818;4.344;2024-01-30T06:31:57;12.35;;;7.10;;
34725;SDS011;20951;50.818;4.344;2024-01-30T06:34:22;12.45;;;6.72;;
34725;SDS011;20951;50.818;4.344;2024-01-30T06:36:48;12.00;;;6.80;;
34725;SDS011;20951;50.818;4.344;2024-01-30T06:39:14;10.05;;;6.25;;
34725;SDS011;20951;50.818;4.344;2024-01-30T06:41:40;12.10;;;7.00;;
34725;SDS011;20951;50.818;4.344;2024-01-30T06:44:05;10.82;;;6.72;;
34725;SDS011;20951;50.818;4.344;2024-01-30T06:46:33;11.88;;;6.90;;
34725;SDS011;20951;50.818;4.344;2024-01-30T06:48:59;10.88;;;6.72;;
34725;SDS011;20951;50.818;4.344;2024-01-30T06:51:25;12.25;;;6.65;;
34725;SDS011;20951;50.818;4.344;2024-01-30T06:53:50;11.43;;;7.10;;
34725;SDS011;20951;50.818;4.344;2024-01-30T06:56:16;14.70;;;7.10;;
34725;SDS011;20951;50.818;4.344;2024-01-30T06:58:46;10.93;;;6.93;;
34725;SDS011;20951;50.818;4.344;2024-01-30T07:01:13;10.68;;;7.13;;
34725;SDS011;20951;50.818;4.344;2024-01-30T07:03:39;10.15;;;6.97;;
34725;SDS011;20951;50.818;4.344;2024-01-30T07:06:05;11.05;;;7.10;;
34725;SDS011;20951;50.818;4.344;2024-01-30T07:08:30;13.13;;;7.90;;
34725;SDS011;20951;50.818;4.344;2024-01-30T07:10:56;13.23;;;7.40;;
34725;SDS011;20951;50.818;4.344;2024-01-30T07:13:22;12.15;;;7.20;;
34725;SDS011;20951;50.818;4.344;2024-01-30T07:15:48;14.50;;;7.47;;
34725;SDS011;20951;50.818;4.344;2024-01-30T07:18:14;12.00;;;7.15;;
34725;SDS011;20951;50.818;4.344;2024-01-30T07:20:39;13.00;;;6.72;;
34725;SDS011;20951;50.818;4.344;2024-01-30T07:23:14;13.68;;;7.18;;
34725;SDS011;20951;50.818;4.344;2024-01-30T07:25:45;12.10;;;6.65;;
34725;SDS011;20951;50.818;4.344;2024-01-30T07:28:13;13.68;;;6.95;;
34725;SDS011;20951;50.818;4.344;2024-01-30T07:30:41;14.43;;;7.22;;
34725;SDS011;20951;50.818;4.344;2024-01-30T07:33:08;14.10;;;7.60;;
34725;SDS011;20951;50.818;4.344;2024-01-30T07:35:34;15.82;;;7.57;;
34725;SDS011;20951;50.818;4.344;2024-01-30T07:38:00;12.80;;;7.70;;
34725;SDS011;20951;50.818;4.344;2024-01-30T07:40:26;16.20;;;7.72;;
34725;SDS011;20951;50.818;4.344;2024-01-30T07:42:55;16.75;;;7.57;;
34725;SDS011;20951;50.818;4.344;2024-01-30T07:45:21;13.80;;;7.38;;
34725;SDS011;20951;50.818;4.344;2024-01-30T07:47:48;18.15;;;7.90;;
34725;SDS011;20951;50.818;4.344;2024-01-30T07:50:16;18.55;;;7.70;;
34725;SDS011;20951;50.818;4.344;2024-01-30T07:52:42;16.98;;;7.60;;
34725;SDS011;20951;50.818;4.344;2024-01-30T07:55:08;17.80;;;8.48;;
34725;SDS011;20951;50.818;4.344;2024-01-30T07:57:34;17.45;;;8.30;;
34725;SDS011;20951;50.818;4.344;2024-01-30T08:00:00;19.88;;;8.70;;
34725;SDS011;20951;50.818;4.344;2024-01-30T08:02:27;19.42;;;8.63;;
34725;SDS011;20951;50.818;4.344;2024-01-30T08:04:53;20.42;;;8.40;;
34725;SDS011;20951;50.818;4.344;2024-01-30T08:07:19;20.35;;;9.88;;
34725;SDS011;20951;50.818;4.344;2024-01-30T08:09:47;17.13;;;8.75;;
34725;SDS011;20951;50.818;4.344;2024-01-30T08:12:13;19.05;;;9.00;;
34725;SDS011;20951;50.818;4.344;2024-01-30T08:14:39;17.15;;;8.52;;
34725;SDS011;20951;50.818;4.344;2024-01-30T08:17:06;17.63;;;8.90;;
34725;SDS011;20951;50.818;4.344;2024-01-30T08:19:32;15.40;;;8.63;;
34725;SDS011;20951;50.818;4.344;2024-01-30T08:21:58;17.65;;;8.70;;
34725;SDS011;20951;50.818;4.344;2024-01-30T08:24:24;17.05;;;8.70;;
34725;SDS011;20951;50.818;4.344;2024-01-30T08:26:50;14.02;;;8.23;;
34725;SDS011;20951;50.818;4.344;2024-01-30T08:29:16;17.08;;;8.55;;
34725;SDS011;20951;50.818;4.344;2024-01-30T08:31:42;13.40;;;8.27;;
34725;SDS011;20951;50.818;4.344;2024-01-30T08:34:07;16.38;;;8.55;;
34725;SDS011;20951;50.818;4.344;2024-01-30T08:36:33;18.13;;;8.70;;
34725;SDS011;20951;50.818;4.344;2024-01-30T08:38:59;19.55;;;8.80;;
34725;SDS011;20951;50.818;4.344;2024-01-30T08:41:25;19.83;;;9.25;;
34725;SDS011;20951;50.818;4.344;2024-01-30T08:43:52;18.75;;;8.25;;
34725;SDS011;20951;50.818;4.344;2024-01-30T08:46:20;18.90;;;9.10;;
34725;SDS011;20951;50.818;4.344;2024-01-30T08:48:46;19.20;;;8.55;;
34725;SDS011;20951;50.818;4.344;2024-01-30T08:51:13;17.92;;;9.15;;
34725;SDS011;20951;50.818;4.344;2024-01-30T08:53:40;15.40;;;8.52;;
34725;SDS011;20951;50.818;4.344;2024-01-30T08:56:06;18.05;;;9.13;;
34725;SDS011;20951;50.818;4.344;2024-01-30T08:58:33;15.90;;;8.18;;
34725;SDS011;20951;50.818;4.344;2024-01-30T09:00:59;14.43;;;8.73;;
34725;SDS011;20951;50.818;4.344;2024-01-30T09:03:25;16.77;;;7.80;;
34725;SDS011;20951;50.818;4.344;2024-01-30T09:05:51;15.18;;;8.45;;
34725;SDS011;20951;50.818;4.344;2024-01-30T09:08:17;16.48;;;8.52;;
34725;SDS011;20951;50.818;4.344;2024-01-30T09:10:42;17.45;;;8.60;;
34725;SDS011;20951;50.818;4.344;2024-01-30T09:13:09;15.75;;;8.63;;
34725;SDS011;20951;50.818;4.344;2024-01-30T09:15:35;16.63;;;8.35;;
34725;SDS011;20951;50.818;4.344;2024-01-30T09:18:01;16.67;;;9.43;;
34725;SDS011;20951;50.818;4.344;2024-01-30T09:20:26;17.60;;;8.68;;
34725;SDS011;20951;50.818;4.344;2024-01-30T09:22:54;16.60;;;8.73;;
34725;SDS011;20951;50.818;4.344;2024-01-30T09:25:19;18.70;;;9.32;;
34725;SDS011;20951;50.818;4.344;2024-01-30T09:27:45;17.20;;;9.60;;
34725;SDS011;20951;50.818;4.344;2024-01-30T09:30:11;19.88;;;9.30;;
34725;SDS011;20951;50.818;4.344;2024-01-30T09:32:39;16.65;;;9.48;;
34725;SDS011;20951;50.818;4.344;2024-01-30T09:35:05;19.45;;;9.52;;
34725;SDS011;20951;50.818;4.344;2024-01-30T09:37:31;20.00;;;10.27;;
34725;SDS011;20951;50.818;4.344;2024-01-30T09:39:57;18.92;;;9.80;;
34725;SDS011;20951;50.818;4.344;2024-01-30T09:42:28;23.20;;;10.10;;
34725;SDS011;20951;50.818;4.344;2024-01-30T09:45:01;18.60;;;10.68;;
34725;SDS011;20951;50.818;4.344;2024-01-30T09:47:31;21.95;;;10.43;;
34725;SDS011;20951;50.818;4.344;2024-01-30T09:50:10;27.23;;;11.98;;
34725;SDS011;20951;50.818;4.344;2024-01-30T09:52:37;24.88;;;10.48;;
34725;SDS011;20951;50.818;4.344;2024-01-30T09:55:04;19.63;;;11.07;;
34725;SDS011;20951;50.818;4.344;2024-01-30T09:57:30;20.70;;;11.43;;
34725;SDS011;20951;50.818;4.344;2024-01-30T09:59:57;22.08;;;11.23;;
34725;SDS011;20951;50.818;4.344;2024-01-30T10:02:23;18.92;;;10.77;;
34725;SDS011;20951;50.818;4.344;2024-01-30T10:04:50;21.90;;;11.23;;
34725;SDS011;20951;50.818;4.344;2024-01-30T10:07:20;21.40;;;11.25;;
34725;SDS011;20951;50.818;4.344;2024-01-30T10:09:46;24.92;;;12.00;;
34725;SDS011;20951;50.818;4.344;2024-01-30T10:12:12;20.67;;;11.10;;
34725;SDS011;20951;50.818;4.344;2024-01-30T10:14:42;19.33;;;11.25;;
34725;SDS011;20951;50.818;4.344;2024-01-30T10:17:11;23.75;;;11.77;;
34725;SDS011;20951;50.818;4.344;2024-01-30T10:19:41;20.77;;;11.30;;
34725;SDS011;20951;50.818;4.344;2024-01-30T10:22:09;20.75;;;10.90;;
34725;SDS011;20951;50.818;4.344;2024-01-30T10:24:35;26.50;;;11.35;;
34725;SDS011;20951;50.818;4.344;2024-01-30T10:27:02;21.08;;;11.52;;
34725;SDS011;20951;50.818;4.344;2024-01-30T10:29:28;21.17;;;11.48;;
34725;SDS011;20951;50.818;4.344;2024-01-30T10:32:00;31.35;;;12.55;;
34725;SDS011;20951;50.818;4.344;2024-01-30T10:34:27;21.77;;;11.75;;
34725;SDS011;20951;50.818;4.344;2024-01-30T10:37:07;24.33;;;11.00;;
34725;SDS011;20951;50.818;4.344;2024-01-30T10:39:52;24.33;;;10.25;;
34725;SDS011;20951;50.818;4.344;2024-01-30T10:42:22;20.40;;;10.25;;
34725;SDS011;20951;50.818;4.344;2024-01-30T10:47:28;18.73;;;9.67;;
34725;SDS011;20951;50.818;4.344;2024-01-30T10:49:55;19.52;;;9.00;;
34725;SDS011;20951;50.818;4.344;2024-01-30T10:52:22;17.58;;;8.30;;
34725;SDS011;20951;50.818;4.344;2024-01-30T10:54:55;14.45;;;7.65;;
34725;SDS011;20951;50.818;4.344;2024-01-30T10:57:25;14.57;;;7.40;;
34725;SDS011;20951;50.818;4.344;2024-01-30T10:59:58;19.38;;;7.97;;
34725;SDS011;20951;50.818;4.344;2024-01-30T11:02:25;12.05;;;7.15;;
34725;SDS011;20951;50.818;4.344;2024-01-30T11:04:56;19.60;;;7.35;;
34725;SDS011;20951;50.818;4.344;2024-01-30T11:07:29;19.02;;;6.72;;
34725;SDS011;20951;50.818;4.344;2024-01-30T11:12:37;14.60;;;6.65;;
34725;SDS011;20951;50.818;4.344;2024-01-30T11:15:15;13.35;;;5.60;;
34725;SDS011;20951;50.818;4.344;2024-01-30T11:20:21;12.45;;;5.68;;
34725;SDS011;20951;50.818;4.344;2024-01-30T11:22:54;16.67;;;4.93;;
34725;SDS011;20951;50.818;4.344;2024-01-30T11:25:21;12.45;;;4.18;;
34725;SDS011;20951;50.818;4.344;2024-01-30T11:27:49;13.13;;;3.83;;
34725;SDS011;20951;50.818;4.344;2024-01-30T11:30:26;7.55;;;2.53;;
34725;SDS011;20951;50.818;4.344;2024-01-30T11:33:03;6.22;;;1.88;;
34725;SDS011;20951;50.818;4.344;2024-01-30T11:35:42;7.45;;;1.85;;
34725;SDS011;20951;50.818;4.344;2024-01-30T11:38:11;10.82;;;2.35;;
34725;SDS011;20951;50.818;4.344;2024-01-30T11:40:39;8.65;;;2.20;;
34725;SDS011;20951;50.818;4.344;2024-01-30T11:43:06;8.52;;;2.05;;
34725;SDS011;20951;50.818;4.344;2024-01-30T11:45:33;8.27;;;2.05;;
34725;SDS011;20951;50.818;4.344;2024-01-30T11:48:00;6.53;;;1.75;;
34725;SDS011;20951;50.818;4.344;2024-01-30T11:50:28;6.07;;;1.67;;
34725;SDS011;20951;50.818;4.344;2024-01-30T11:53:03;8.52;;;1.85;;
34725;SDS011;20951;50.818;4.344;2024-01-30T11:55:30;6.10;;;1.70;;
34725;SDS011;20951;50.818;4.344;2024-01-30T11:57:59;10.20;;;1.80;;
34725;SDS011;20951;50.818;4.344;2024-01-30T12:00:25;6.55;;;1.50;;
34725;SDS011;20951;50.818;4.344;2024-01-30T12:02:54;3.65;;;0.90;;
34725;SDS011;20951;50.818;4.344;2024-01-30T12:05:24;5.00;;;1.10;;
34725;SDS011;20951;50.818;4.344;2024-01-30T12:07:50;7.35;;;1.10;;
34725;SDS011;20951;50.818;4.344;2024-01-30T12:10:16;4.03;;;0.70;;
34725;SDS011;20951;50.818;4.344;2024-01-30T12:12:45;3.70;;;1.00;;
34725;SDS011;20951;50.818;4.344;2024-01-30T12:15:12;5.30;;;1.08;;
34725;SDS011;20951;50.818;4.344;2024-01-30T12:17:39;5.93;;;1.10;;
34725;SDS011;20951;50.818;4.344;2024-01-30T12:20:09;7.00;;;1.25;;
34725;SDS011;20951;50.818;4.344;2024-01-30T12:22:45;8.27;;;1.30;;
34725;SDS011;20951;50.818;4.344;2024-01-30T12:25:13;5.07;;;0.80;;
34725;SDS011;20951;50.818;4.344;2024-01-30T12:27:42;4.82;;;1.02;;
34725;SDS011;20951;50.818;4.344;2024-01-30T12:30:10;6.45;;;1.33;;
34725;SDS011;20951;50.818;4.344;2024-01-30T12:32:40;3.97;;;0.80;;
34725;SDS011;20951;50.818;4.344;2024-01-30T12:35:10;5.38;;;1.30;;
34725;SDS011;20951;50.818;4.344;2024-01-30T12:37:40;5.93;;;0.80;;
34725;SDS011;20951;50.818;4.344;2024-01-30T12:40:07;6.85;;;0.90;;
34725;SDS011;20951;50.818;4.344;2024-01-30T12:42:34;5.13;;;0.85;;
34725;SDS011;20951;50.818;4.344;2024-01-30T12:45:01;5.30;;;0.88;;
34725;SDS011;20951;50.818;4.344;2024-01-30T12:47:29;4.55;;;1.00;;
34725;SDS011;20951;50.818;4.344;2024-01-30T12:49:55;7.70;;;1.00;;
34725;SDS011;20951;50.818;4.344;2024-01-30T12:52:21;5.97;;;1.20;;
34725;SDS011;20951;50.818;4.344;2024-01-30T12:54:48;4.95;;;1.40;;
34725;SDS011;20951;50.818;4.344;2024-01-30T12:57:14;7.18;;;1.02;;
34725;SDS011;20951;50.818;4.344;2024-01-30T12:59:40;6.82;;;1.00;;
34725;SDS011;20951;50.818;4.344;2024-01-30T13:02:06;8.82;;;1.60;;
34725;SDS011;20951;50.818;4.344;2024-01-30T13:04:32;3.75;;;1.10;;
34725;SDS011;20951;50.818;4.344;2024-01-30T13:06:58;4.55;;;1.05;;
34725;SDS011;20951;50.818;4.344;2024-01-30T13:09:26;3.85;;;1.05;;
34725;SDS011;20951;50.818;4.344;2024-01-30T13:11:52;5.65;;;1.45;;
34725;SDS011;20951;50.818;4.344;2024-01-30T13:14:18;3.95;;;1.00;;
34725;SDS011;20951;50.818;4.344;2024-01-30T13:16:44;4.25;;;1.10;;
34725;SDS011;20951;50.818;4.344;2024-01-30T13:19:10;7.30;;;1.25;;
34725;SDS011;20951;50.818;4.344;2024-01-30T13:21:36;4.88;;;1.30;;
34725;SDS011;20951;50.818;4.344;2024-01-30T13:24:02;5.53;;;1.40;;
34725;SDS011;20951;50.818;4.344;2024-01-30T13:26:28;4.82;;;1.10;;
34725;SDS011;20951;50.818;4.344;2024-01-30T13:28:56;7.82;;;1.50;;
34725;SDS011;20951;50.818;4.344;2024-01-30T13:31:23;5.25;;;1.08;;
34725;SDS011;20951;50.818;4.344;2024-01-30T13:33:50;10.02;;;1.70;;
34725;SDS011;20951;50.818;4.344;2024-01-30T13:36:16;7.72;;;1.67;;
34725;SDS011;20951;50.818;4.344;2024-01-30T13:38:42;9.20;;;1.67;;
34725;SDS011;20951;50.818;4.344;2024-01-30T13:41:08;13.40;;;1.42;;
34725;SDS011;20951;50.818;4.344;2024-01-30T13:43:34;7.68;;;1.75;;
34725;SDS011;20951;50.818;4.344;2024-01-30T13:46:00;6.82;;;1.35;;
34725;SDS011;20951;50.818;4.344;2024-01-30T13:48:26;5.82;;;1.20;;
34725;SDS011;20951;50.818;4.344;2024-01-30T13:50:52;8.88;;;1.33;;
34725;SDS011;20951;50.818;4.344;2024-01-30T13:53:18;7.40;;;1.63;;
34725;SDS011;20951;50.818;4.344;2024-01-30T13:55:44;6.80;;;1.50;;
34725;SDS011;20951;50.818;4.344;2024-01-30T13:58:10;8.50;;;2.00;;
34725;SDS011;20951;50.818;4.344;2024-01-30T14:00:37;9.73;;;1.83;;
34725;SDS011;20951;50.818;4.344;2024-01-30T14:03:03;9.43;;;1.40;;
34725;SDS011;20951;50.818;4.344;2024-01-30T14:05:30;9.75;;;1.60;;
34725;SDS011;20951;50.818;4.344;2024-01-30T14:07:56;7.20;;;1.35;;
34725;SDS011;20951;50.818;4.344;2024-01-30T14:10:23;5.82;;;1.20;;
34725;SDS011;20951;50.818;4.344;2024-01-30T14:12:50;6.15;;;1.30;;
34725;SDS011;20951;50.818;4.344;2024-01-30T14:15:16;6.55;;;1.20;;
34725;SDS011;20951;50.818;4.344;2024-01-30T14:17:44;9.40;;;1.63;;
34725;SDS011;20951;50.818;4.344;2024-01-30T14:20:12;8.75;;;1.27;;
34725;SDS011;20951;50.818;4.344;2024-01-30T14:22:38;7.78;;;1.63;;
34725;SDS011;20951;50.818;4.344;2024-01-30T14:25:04;7.85;;;1.48;;
34725;SDS011;20951;50.818;4.344;2024-01-30T14:27:30;5.88;;;1.23;;
34725;SDS011;20951;50.818;4.344;2024-01-30T14:29:57;7.63;;;1.17;;
34725;SDS011;20951;50.818;4.344;2024-01-30T14:32:23;6.70;;;1.48;;
34725;SDS011;20951;50.818;4.344;2024-01-30T14:34:49;6.30;;;1.60;;
34725;SDS011;20951;50.818;4.344;2024-01-30T14:37:16;6.88;;;1.15;;
34725;SDS011;20951;50.818;4.344;2024-01-30T14:39:43;4.82;;;1.38;;
34725;SDS011;20951;50.818;4.344;2024-01-30T14:42:08;4.15;;;1.20;;
34725;SDS011;20951;50.818;4.344;2024-01-30T14:44:35;7.68;;;1.33;;
34725;SDS011;20951;50.818;4.344;2024-01-30T14:47:00;7.65;;;1.17;;